createdAt,value
2022-11-01T00:02:04.208Z,7.82
2022-11-01T00:04:30.945Z,8.18
2022-11-01T00:06:57.610Z,11.48
2022-11-01T00:09:24.256Z,9.90
2022-11-01T00:11:50.927Z,8.82
2022-11-01T00:14:18.468Z,9.30
2022-11-01T00:16:45.131Z,9.10
2022-11-01T00:19:11.807Z,8.73
2022-11-01T00:21:38.474Z,9.40
2022-11-01T00:24:05.526Z,9.57
2022-11-01T00:26:32.305Z,9.43
2022-11-01T00:28:58.928Z,9.35
2022-11-01T00:31:25.908Z,8.80
2022-11-01T00:33:52.550Z,9.82
2022-11-01T00:36:19.292Z,9.25
2022-11-01T00:38:49.897Z,10.43
2022-11-01T00:41:16.537Z,9.95
2022-11-01T00:43:43.392Z,10.40
2022-11-01T00:46:10.183Z,9.43
2022-11-01T00:48:36.799Z,10.02
2022-11-01T00:51:03.683Z,10.25
2022-11-01T00:53:30.381Z,10.52
2022-11-01T00:56:04.190Z,11.20
2022-11-01T00:58:30.870Z,9.65
2022-11-01T01:00:57.665Z,10.88
2022-11-01T01:03:30.501Z,10.38
2022-11-01T01:05:57.188Z,10.80
2022-11-01T01:08:24.090Z,11.13
2022-11-01T01:11:36.524Z,11.15
2022-11-01T01:14:03.166Z,10.65
2022-11-01T01:16:29.842Z,10.55
2022-11-01T01:18:56.515Z,9.23
2022-11-01T01:21:23.126Z,9.85
2022-11-01T01:23:51.536Z,10.55
2022-11-01T01:26:18.271Z,11.13
2022-11-01T01:28:45.065Z,9.93
2022-11-01T01:31:12.841Z,10.30
2022-11-01T01:33:39.602Z,10.93
2022-11-01T01:36:06.711Z,10.25
2022-11-01T01:38:33.376Z,10.60
2022-11-01T01:41:18.580Z,10.80
2022-11-01T01:43:45.263Z,9.85
2022-11-01T01:46:11.942Z,9.55
2022-11-01T01:48:40.169Z,9.77
2022-11-01T01:51:09.119Z,8.90
2022-11-01T01:53:41.052Z,9.63
2022-11-01T01:56:12.460Z,9.80
2022-11-01T01:58:45.178Z,9.57
2022-11-01T02:01:12.022Z,9.57
2022-11-01T02:03:38.917Z,9.68
2022-11-01T02:06:18.695Z,9.60
2022-11-01T02:08:47.581Z,9.35
2022-11-01T02:11:15.054Z,9.73
2022-11-01T02:13:41.723Z,9.43
2022-11-01T02:16:39.211Z,10.05
2022-11-01T02:19:27.029Z,8.90
2022-11-01T02:22:09.908Z,10.57
2022-11-01T02:24:55.442Z,10.13
2022-11-01T02:27:34.156Z,10.10
2022-11-01T02:30:06.352Z,10.13
2022-11-01T02:32:39.487Z,10.20
2022-11-01T02:35:09.158Z,9.60
2022-11-01T02:37:46.920Z,9.63
2022-11-01T02:40:21.750Z,10.60
2022-11-01T02:42:50.521Z,10.15
2022-11-01T02:45:29.065Z,10.35
2022-11-01T02:48:19.553Z,10.57
2022-11-01T02:50:47.516Z,10.85
2022-11-01T02:53:14.163Z,10.55
2022-11-01T02:55:40.791Z,10.55
2022-11-01T02:58:22.932Z,10.45
2022-11-01T03:00:49.685Z,10.10
2022-11-01T03:03:20.514Z,10.93
2022-11-01T03:05:55.221Z,10.68
2022-11-01T03:08:34.456Z,10.35
2022-11-01T03:11:12.448Z,9.82
2022-11-01T03:13:57.849Z,10.10
2022-11-01T03:19:20.974Z,10.13
2022-11-01T03:21:52.471Z,9.90
2022-11-01T03:24:27.702Z,9.90
2022-11-01T03:27:00.966Z,10.10
2022-11-01T03:29:27.678Z,9.90
2022-11-01T03:31:54.288Z,9.90
2022-11-01T03:34:20.964Z,9.35
2022-11-01T03:36:51.589Z,9.25
2022-11-01T03:39:24.429Z,8.88
2022-11-01T03:41:53.343Z,9.27
2022-11-01T03:44:20.018Z,8.98
2022-11-01T03:46:46.807Z,8.05
2022-11-01T03:49:18.118Z,9.20
2022-11-01T03:51:44.755Z,8.77
2022-11-01T03:54:11.521Z,9.10
2022-11-01T03:56:40.701Z,7.95
2022-11-01T03:59:08.493Z,9.05
2022-11-01T04:01:35.373Z,8.32
2022-11-01T04:04:02.494Z,8.52
2022-11-01T04:06:29.123Z,8.77
2022-11-01T04:08:56.030Z,8.68
2022-11-01T04:11:23.128Z,8.20
2022-11-01T04:13:49.776Z,8.32
2022-11-01T04:16:34.990Z,7.15
2022-11-01T04:21:47.084Z,9.13
2022-11-01T04:24:21.163Z,9.30
2022-11-01T04:26:48.091Z,10.38
2022-11-01T04:29:14.782Z,10.50
2022-11-01T04:31:41.386Z,10.38
2022-11-01T04:34:08.094Z,9.65
2022-11-01T04:36:34.746Z,9.55
2022-11-01T04:39:01.383Z,9.68
2022-11-01T04:41:28.833Z,9.98
2022-11-01T04:43:58.036Z,11.07
2022-11-01T04:46:24.937Z,10.55
2022-11-01T04:52:38.387Z,10.47
2022-11-01T04:55:05.366Z,9.65
2022-11-01T04:57:31.953Z,11.50
2022-11-01T04:59:58.617Z,10.10
2022-11-01T05:02:25.283Z,10.02
2022-11-01T05:04:51.942Z,10.50
2022-11-01T05:07:18.653Z,9.68
2022-11-01T05:09:45.335Z,10.10
2022-11-01T05:12:12.893Z,11.15
2022-11-01T05:14:39.516Z,11.18
2022-11-01T05:17:06.254Z,10.35
2022-11-01T05:19:32.980Z,11.60
2022-11-01T05:21:59.897Z,11.32
2022-11-01T05:24:26.632Z,12.07
2022-11-01T05:26:53.295Z,10.00
2022-11-01T05:29:24.940Z,12.18
2022-11-01T05:31:59.380Z,10.60
2022-11-01T05:34:26.021Z,10.20
2022-11-01T05:36:53.716Z,11.05
2022-11-01T05:39:20.425Z,10.70
2022-11-01T05:41:47.087Z,11.50
2022-11-01T05:44:13.756Z,10.80
2022-11-01T05:46:40.495Z,10.90
2022-11-01T05:49:07.143Z,11.32
2022-11-01T05:51:33.768Z,11.18
2022-11-01T05:54:00.465Z,10.63
2022-11-01T05:56:27.097Z,12.18
2022-11-01T05:58:53.773Z,11.30
2022-11-01T06:01:21.342Z,11.77
2022-11-01T06:03:50.020Z,10.98
2022-11-01T06:06:16.712Z,10.02
2022-11-01T06:08:43.405Z,10.35
2022-11-01T06:11:10.098Z,10.70
2022-11-01T06:13:36.689Z,10.68
2022-11-01T06:16:05.351Z,11.43
2022-11-01T06:18:32.065Z,11.35
2022-11-01T06:20:59.400Z,10.80
2022-11-01T06:23:26.099Z,10.30
2022-11-01T06:26:00.054Z,10.38
2022-11-01T06:28:26.804Z,10.43
2022-11-01T06:30:53.568Z,10.50
2022-11-01T06:33:20.181Z,9.77
2022-11-01T06:35:46.856Z,10.85
2022-11-01T06:38:13.520Z,10.85
2022-11-01T06:40:40.164Z,9.95
2022-11-01T06:43:06.840Z,11.00
2022-11-01T06:45:33.514Z,10.48
2022-11-01T06:48:00.443Z,9.43
2022-11-01T06:50:27.544Z,9.93
2022-11-01T06:52:58.455Z,10.50
2022-11-01T06:55:25.833Z,9.90
2022-11-01T06:57:56.452Z,10.70
2022-11-01T07:00:23.360Z,10.20
2022-11-01T07:02:49.976Z,10.77
2022-11-01T07:05:16.683Z,11.15
2022-11-01T07:07:43.381Z,10.15
2022-11-01T07:10:10.169Z,10.70
2022-11-01T07:12:36.760Z,11.77
2022-11-01T07:15:04.386Z,10.18
2022-11-01T07:17:30.969Z,10.10
2022-11-01T07:19:57.721Z,9.60
2022-11-01T07:22:24.518Z,9.00
2022-11-01T07:24:51.184Z,9.23
2022-11-01T07:27:20.454Z,9.43
2022-11-01T07:29:47.474Z,9.40
2022-11-01T07:32:14.105Z,9.50
2022-11-01T07:34:40.700Z,9.35
2022-11-01T07:37:07.317Z,9.30
2022-11-01T07:39:33.982Z,11.10
2022-11-01T07:42:00.593Z,9.48
2022-11-01T07:44:27.221Z,8.48
2022-11-01T07:46:54.010Z,9.07
2022-11-01T07:49:20.640Z,11.30
2022-11-01T07:51:47.216Z,9.73
2022-11-01T07:54:14.075Z,10.13
2022-11-01T07:56:40.734Z,11.75
2022-11-01T07:59:08.483Z,11.55
2022-11-01T08:01:35.170Z,10.85
2022-11-01T08:04:01.885Z,9.25
2022-11-01T08:06:28.517Z,9.88
2022-11-01T08:08:55.272Z,9.85
2022-11-01T08:11:21.859Z,8.57
2022-11-01T08:13:48.436Z,8.77
2022-11-01T08:16:18.240Z,9.80
2022-11-01T08:18:45.340Z,9.10
2022-11-01T08:21:18.598Z,9.77
2022-11-01T08:23:45.957Z,20.20
2022-11-01T08:26:12.718Z,15.98
2022-11-01T08:28:39.554Z,17.90
2022-11-01T08:31:07.685Z,18.80
2022-11-01T08:33:34.561Z,10.23
2022-11-01T08:36:01.222Z,10.60
2022-11-01T08:38:27.972Z,11.65
2022-11-01T08:40:55.150Z,9.93
2022-11-01T08:43:21.787Z,9.82
2022-11-01T08:45:48.567Z,8.73
2022-11-01T08:48:15.121Z,8.70
2022-11-01T08:51:08.636Z,9.05
2022-11-01T08:53:35.383Z,8.75
2022-11-01T08:56:02.088Z,8.77
2022-11-01T08:58:28.720Z,8.65
2022-11-01T09:00:55.405Z,8.90
2022-11-01T09:03:22.049Z,8.10
2022-11-01T09:05:48.855Z,10.10
2022-11-01T09:08:15.447Z,8.40
2022-11-01T09:10:42.062Z,8.30
2022-11-01T09:13:08.950Z,8.07
2022-11-01T09:15:35.561Z,8.73
2022-11-01T09:18:07.087Z,7.82
2022-11-01T09:20:33.759Z,8.90
2022-11-01T09:23:00.887Z,7.38
2022-11-01T09:25:27.727Z,7.72
2022-11-01T09:27:56.748Z,9.18
2022-11-01T09:30:24.166Z,9.95
2022-11-01T09:32:50.824Z,11.02
2022-11-01T09:35:18.211Z,8.88
2022-11-01T09:37:45.042Z,7.75
2022-11-01T09:40:14.306Z,7.57
2022-11-01T09:42:43.885Z,9.52
2022-11-01T09:45:19.138Z,9.60
2022-11-01T09:47:56.271Z,10.95
2022-11-01T09:50:27.799Z,7.15
2022-11-01T09:52:55.099Z,8.73
2022-11-01T09:55:37.391Z,7.60
2022-11-01T09:58:09.056Z,9.25
2022-11-01T10:00:38.649Z,7.93
2022-11-01T10:03:20.429Z,7.93
2022-11-01T10:06:20.199Z,8.25
2022-11-01T10:08:58.765Z,8.07
2022-11-01T10:11:56.343Z,8.77
2022-11-01T10:14:31.965Z,8.32
2022-11-01T10:17:10.820Z,9.00
2022-11-01T10:19:37.379Z,9.85
2022-11-01T10:22:06.900Z,8.88
2022-11-01T10:24:37.929Z,7.45
2022-11-01T10:27:50.164Z,10.15
2022-11-01T10:30:17.326Z,9.15
2022-11-01T10:33:17.199Z,8.60
2022-11-01T10:35:45.129Z,7.90
2022-11-01T10:38:28.004Z,8.32
2022-11-01T10:41:09.117Z,8.10
2022-11-01T10:43:41.088Z,8.88
2022-11-01T10:46:08.996Z,7.97
2022-11-01T10:48:42.699Z,7.82
2022-11-01T10:51:09.278Z,8.15
2022-11-01T10:53:44.592Z,7.80
2022-11-01T10:56:12.534Z,7.70
2022-11-01T10:59:19.477Z,7.68
2022-11-01T11:01:47.470Z,7.82
2022-11-01T11:04:15.814Z,7.82
2022-11-01T11:06:42.604Z,19.08
2022-11-01T11:09:32.982Z,7.85
2022-11-01T11:12:02.492Z,8.02
2022-11-01T11:14:31.676Z,8.02
2022-11-01T11:16:58.529Z,9.18
2022-11-01T11:19:35.609Z,8.57
2022-11-01T11:22:03.453Z,7.70
2022-11-01T11:24:35.433Z,7.43
2022-11-01T11:27:03.311Z,8.30
2022-11-01T11:29:40.156Z,7.65
2022-11-01T11:32:13.234Z,7.82
2022-11-01T11:34:40.028Z,7.40
2022-11-01T11:37:08.161Z,8.05
2022-11-01T11:39:37.934Z,6.75
2022-11-01T11:42:25.801Z,7.45
2022-11-01T11:44:56.915Z,7.85
2022-11-01T11:47:28.236Z,12.93
2022-11-01T11:49:56.957Z,10.95
2022-11-01T11:52:28.797Z,7.57
2022-11-01T11:54:55.993Z,7.22
2022-11-01T11:57:27.032Z,7.10
2022-11-01T11:59:55.483Z,7.05
2022-11-01T12:02:24.233Z,6.82
2022-11-01T12:04:59.737Z,8.20
2022-11-01T12:07:35.490Z,7.18
2022-11-01T12:10:04.124Z,7.68
2022-11-01T12:12:40.698Z,7.93
2022-11-01T12:15:26.219Z,7.20
2022-11-01T12:17:52.795Z,7.50
2022-11-01T12:20:21.015Z,7.22
2022-11-01T12:23:31.534Z,7.80
2022-11-01T12:26:02.358Z,8.85
2022-11-01T12:28:40.172Z,7.88
2022-11-01T12:31:20.089Z,8.27
2022-11-01T12:33:54.740Z,7.78
2022-11-01T12:36:26.478Z,9.35
2022-11-01T12:39:38.217Z,8.00
2022-11-01T12:42:05.094Z,10.57
2022-11-01T12:44:33.725Z,9.38
2022-11-01T12:47:04.533Z,9.05
2022-11-01T12:49:40.314Z,8.57
2022-11-01T12:52:28.386Z,8.88
2022-11-01T12:55:05.376Z,8.43
2022-11-01T12:57:32.525Z,9.07
2022-11-01T12:59:59.156Z,9.38
2022-11-01T13:02:25.854Z,8.60
2022-11-01T13:04:57.697Z,8.98
2022-11-01T13:07:24.243Z,8.73
2022-11-01T13:10:03.326Z,9.27
2022-11-01T13:12:39.121Z,9.60
2022-11-01T13:15:14.938Z,9.70
2022-11-01T13:17:44.464Z,9.27
2022-11-01T13:20:19.443Z,9.60
2022-11-01T13:25:28.512Z,9.10
2022-11-01T13:27:59.613Z,9.30
2022-11-01T13:30:26.181Z,9.15
2022-11-01T13:33:00.475Z,9.85
2022-11-01T13:35:40.170Z,9.55
2022-11-01T13:38:28.968Z,8.80
2022-11-01T13:41:41.165Z,8.77
2022-11-01T13:44:16.732Z,9.77
2022-11-01T13:46:49.249Z,9.20
2022-11-01T13:49:35.143Z,9.15
2022-11-01T13:52:20.914Z,8.75
2022-11-01T13:54:50.680Z,8.60
2022-11-01T13:57:17.744Z,9.00
2022-11-01T13:59:54.185Z,9.27
2022-11-01T14:02:23.952Z,9.88
2022-11-01T14:05:08.779Z,9.25
2022-11-01T14:07:44.480Z,9.37
2022-11-01T14:10:11.299Z,9.13
2022-11-01T14:12:46.462Z,8.98
2022-11-01T14:15:22.877Z,10.35
2022-11-01T14:17:52.820Z,9.68
2022-11-01T14:20:19.515Z,9.70
2022-11-01T14:22:46.247Z,10.32
2022-11-01T14:25:12.878Z,9.18
2022-11-01T14:27:48.827Z,9.77
2022-11-01T14:30:24.941Z,8.68
2022-11-01T14:32:57.233Z,9.85
2022-11-01T14:35:29.245Z,8.80
2022-11-01T14:37:57.679Z,9.27
2022-11-01T14:40:31.818Z,8.65
2022-11-01T14:43:26.514Z,9.10
2022-11-01T14:45:56.483Z,9.65
2022-11-01T14:48:40.332Z,8.95
2022-11-01T14:51:07.906Z,8.75
2022-11-01T14:53:37.802Z,9.55
2022-11-01T14:56:15.306Z,8.88
2022-11-01T14:58:42.194Z,7.03
2022-11-01T15:01:15.500Z,9.48
2022-11-01T15:03:46.476Z,8.50
2022-11-01T15:06:24.218Z,9.57
2022-11-01T15:08:50.948Z,8.75
2022-11-01T15:11:17.685Z,7.55
2022-11-01T15:13:44.532Z,9.68
2022-11-01T15:16:14.124Z,10.02
2022-11-01T15:19:02.464Z,9.30
2022-11-01T15:21:31.307Z,8.75
2022-11-01T15:23:58.411Z,9.00
2022-11-01T15:26:27.182Z,9.02
2022-11-01T15:28:58.731Z,9.05
2022-11-01T15:31:25.450Z,8.73
2022-11-01T15:34:00.060Z,9.32
2022-11-01T15:36:29.553Z,10.52
2022-11-01T15:38:57.642Z,10.25
2022-11-01T15:41:33.874Z,8.48
2022-11-01T15:44:06.173Z,10.05
2022-11-01T15:46:42.038Z,9.90
2022-11-01T15:49:09.989Z,8.70
2022-11-01T15:51:40.854Z,8.95
2022-11-01T15:54:15.617Z,8.70
2022-11-01T15:56:45.634Z,10.48
2022-11-01T15:59:42.464Z,9.23
2022-11-01T16:02:13.863Z,9.75
2022-11-01T16:04:41.506Z,9.63
2022-11-01T16:07:08.400Z,9.40
2022-11-01T16:09:52.448Z,11.93
2022-11-01T16:12:27.534Z,10.93
2022-11-01T16:14:58.822Z,13.65
2022-11-01T16:17:39.728Z,14.65
2022-11-01T16:20:26.114Z,13.05
2022-11-01T16:22:52.760Z,15.35
2022-11-01T16:25:24.104Z,14.45
2022-11-01T16:27:52.510Z,14.40
2022-11-01T16:30:52.417Z,14.35
2022-11-01T16:33:43.557Z,14.55
2022-11-01T16:36:19.228Z,15.20
2022-11-01T16:38:52.945Z,15.23
2022-11-01T16:41:24.117Z,16.00
2022-11-01T16:43:54.298Z,14.95
2022-11-01T16:46:21.405Z,16.85
2022-11-01T16:48:58.348Z,20.10
2022-11-01T16:51:27.083Z,17.60
2022-11-01T16:53:57.584Z,17.20
2022-11-01T16:56:37.443Z,16.23
2022-11-01T16:59:41.295Z,15.50
2022-11-01T17:02:22.179Z,16.50
2022-11-01T17:05:13.482Z,14.68
2022-11-01T17:07:40.243Z,15.80
2022-11-01T17:10:21.043Z,14.43
2022-11-01T17:12:47.847Z,15.05
2022-11-01T17:15:14.923Z,14.70
2022-11-01T17:17:42.392Z,14.90
2022-11-01T17:20:14.739Z,15.95
2022-11-01T17:22:41.453Z,16.08
2022-11-01T17:25:10.418Z,17.25
2022-11-01T17:27:37.164Z,16.38
2022-11-01T17:30:04.337Z,13.98
2022-11-01T17:32:30.926Z,13.90
2022-11-01T17:34:57.651Z,14.38
2022-11-01T17:37:24.477Z,14.65
2022-11-01T17:39:51.307Z,13.70
2022-11-01T17:42:17.954Z,14.65
2022-11-01T17:44:44.584Z,14.73
2022-11-01T17:47:13.985Z,16.02
2022-11-01T17:49:40.665Z,14.38
2022-11-01T17:52:07.233Z,14.95
2022-11-01T17:54:34.895Z,14.77
2022-11-01T17:57:01.467Z,15.65
2022-11-01T17:59:28.672Z,12.35
2022-11-01T18:01:55.481Z,12.73
2022-11-01T18:04:22.335Z,12.73
2022-11-01T18:06:49.105Z,12.38
2022-11-01T18:09:20.216Z,13.48
2022-11-01T18:12:07.946Z,13.25
2022-11-01T18:14:49.908Z,11.30
2022-11-01T18:17:38.252Z,13.25
2022-11-01T18:20:42.893Z,13.30
2022-11-01T18:23:12.551Z,14.10
2022-11-01T18:25:46.070Z,13.98
2022-11-01T18:28:16.314Z,13.15
2022-11-01T18:31:33.565Z,13.10
2022-11-01T18:34:12.840Z,11.18
2022-11-01T18:36:57.343Z,13.63
2022-11-01T18:39:43.523Z,14.43
2022-11-01T18:42:10.408Z,13.57
2022-11-01T18:44:37.682Z,13.85
2022-11-01T18:47:23.870Z,13.82
2022-11-01T18:49:50.439Z,12.65
2022-11-01T18:52:18.181Z,12.75
2022-11-01T18:54:52.330Z,11.75
2022-11-01T18:57:24.764Z,10.63
2022-11-01T18:59:53.001Z,13.35
2022-11-01T19:02:21.453Z,13.05
2022-11-01T19:04:50.195Z,15.25
2022-11-01T19:07:22.622Z,15.23
2022-11-01T19:09:52.419Z,13.40
2022-11-01T19:12:31.277Z,13.90
2022-11-01T19:15:28.536Z,12.48
2022-11-01T19:18:04.633Z,12.52
2022-11-01T19:20:35.487Z,11.32
2022-11-01T19:23:03.242Z,10.55
2022-11-01T19:25:34.243Z,16.05
2022-11-01T19:28:27.986Z,15.43
2022-11-01T19:30:56.126Z,12.05
2022-11-01T19:33:37.646Z,12.77
2022-11-01T19:36:11.626Z,13.25
2022-11-01T19:38:43.278Z,13.45
2022-11-01T19:41:14.192Z,13.40
2022-11-01T19:43:40.821Z,14.02
2022-11-01T19:46:15.967Z,12.55
2022-11-01T19:48:42.658Z,12.85
2022-11-01T19:51:38.641Z,14.00
2022-11-01T19:54:06.876Z,13.35
2022-11-01T19:56:34.652Z,14.77
2022-11-01T19:59:03.730Z,14.93
2022-11-01T20:01:43.056Z,13.52
2022-11-01T20:04:12.992Z,12.90
2022-11-01T20:06:57.604Z,12.25
2022-11-01T20:09:26.464Z,14.25
2022-11-01T20:11:53.214Z,14.40
2022-11-01T20:14:20.115Z,15.63
2022-11-01T20:16:46.811Z,16.13
2022-11-01T20:19:16.543Z,14.25
2022-11-01T20:21:44.776Z,12.35
2022-11-01T20:24:11.381Z,14.23
2022-11-01T20:26:38.173Z,14.77
2022-11-01T20:29:04.794Z,17.13
2022-11-01T20:31:31.523Z,19.30
2022-11-01T20:33:58.996Z,15.48
2022-11-01T20:36:26.316Z,17.42
2022-11-01T20:38:53.311Z,16.65
2022-11-01T20:41:20.656Z,15.57
2022-11-01T20:43:47.283Z,15.23
2022-11-01T20:46:13.984Z,14.80
2022-11-01T20:48:40.934Z,16.48
2022-11-01T20:51:07.535Z,14.98
2022-11-01T20:53:34.479Z,15.77
2022-11-01T20:56:01.959Z,19.02
2022-11-01T20:58:28.620Z,19.52
2022-11-01T21:00:55.923Z,17.60
2022-11-01T21:03:26.931Z,15.77
2022-11-01T21:05:53.540Z,18.83
2022-11-01T21:08:24.617Z,21.13
2022-11-01T21:11:16.877Z,19.20
2022-11-01T21:13:46.474Z,17.73
2022-11-01T21:16:24.196Z,17.77
2022-11-01T21:18:52.541Z,16.77
2022-11-01T21:21:27.065Z,16.30
2022-11-01T21:23:53.907Z,19.40
2022-11-01T21:26:24.861Z,16.88
2022-11-01T21:28:56.142Z,17.15
2022-11-01T21:31:30.384Z,19.20
2022-11-01T21:34:04.525Z,21.63
2022-11-01T21:36:35.220Z,21.52
2022-11-01T21:39:01.831Z,17.98
2022-11-01T21:41:38.915Z,17.17
2022-11-01T21:44:20.600Z,18.27
2022-11-01T21:46:55.243Z,18.15
2022-11-01T21:49:27.088Z,22.40
2022-11-01T21:51:54.642Z,18.30
2022-11-01T21:54:21.430Z,18.98
2022-11-01T21:56:48.207Z,18.95
2022-11-01T21:59:14.891Z,16.73
2022-11-01T22:01:44.062Z,18.38
2022-11-01T22:04:11.371Z,18.13
2022-11-01T22:06:38.013Z,16.95
2022-11-01T22:09:05.052Z,15.27
2022-11-01T22:11:32.906Z,15.05
2022-11-01T22:13:59.839Z,14.35
2022-11-01T22:16:26.563Z,15.20
2022-11-01T22:18:53.198Z,17.50
2022-11-01T22:21:19.868Z,17.45
2022-11-01T22:23:47.061Z,16.30
2022-11-01T22:26:13.842Z,17.40
2022-11-01T22:28:40.474Z,17.88
2022-11-01T22:31:07.226Z,17.85
2022-11-01T22:33:34.510Z,18.13
2022-11-01T22:36:02.384Z,18.60
2022-11-01T22:38:42.598Z,17.10
2022-11-01T22:41:12.157Z,18.08
2022-11-01T22:43:42.090Z,19.38
2022-11-01T22:46:33.149Z,20.45
2022-11-01T22:49:09.874Z,19.45
2022-11-01T22:51:40.618Z,19.77
2022-11-01T22:54:25.827Z,19.90
2022-11-01T22:56:59.022Z,19.08
2022-11-01T22:59:29.324Z,19.25
2022-11-01T23:02:01.990Z,20.33
2022-11-01T23:04:28.969Z,19.65
2022-11-01T23:06:56.809Z,18.40
2022-11-01T23:09:23.713Z,18.45
2022-11-01T23:12:12.945Z,18.25
2022-11-01T23:14:40.322Z,16.70
2022-11-01T23:17:20.471Z,17.70
2022-11-01T23:19:47.544Z,18.75
2022-11-01T23:22:16.013Z,20.63
2022-11-01T23:24:42.686Z,21.38
2022-11-01T23:27:09.297Z,18.02
2022-11-01T23:29:36.110Z,23.27
2022-11-01T23:32:02.925Z,18.35
2022-11-01T23:34:29.553Z,17.83
2022-11-01T23:36:56.141Z,17.80
2022-11-01T23:39:22.745Z,17.17
2022-11-01T23:41:51.013Z,16.77
2022-11-01T23:44:29.833Z,17.38
2022-11-01T23:47:03.481Z,17.23
2022-11-01T23:49:31.295Z,16.30
2022-11-01T23:51:58.336Z,16.85
2022-11-01T23:54:37.125Z,21.20
2022-11-01T23:57:03.947Z,17.83
2022-11-01T23:59:31.377Z,17.92
